Time;durP1;ratioP1;P1;durP2;ratioP2;P2;SDS_P1;SDS_P2;PMS_P1;PMS_P2;Temp;Humidity;BMP_temperature;BMP_pressure;BME280_temperature;BME280_humidity;BME280_pressure;Samples;Min_cycle;Max_cycle;Signal;HPM_P1;HPM_P2
2023/10/15 00:02:34;;;;;;;5.17;2.17;;;;;7.70;101178.00;;;;5026231;28;20375;-71
2023/10/15 00:05:22;;;;;;;5.80;2.30;;;;;7.70;101176.00;;;;5023338;28;20233;-71
2023/10/15 00:08:08;;;;;;;5.07;1.77;;;;;7.70;101175.00;;;;5023770;28;20429;-70
2023/10/15 00:10:56;;;;;;;6.00;1.97;;;;;7.60;101187.00;;;;5027734;28;20233;-70
2023/10/15 00:13:43;;;;;;;3.87;1.73;;;;;7.60;101227.00;;;;5026339;28;20315;-70
2023/10/15 00:16:29;;;;;;;3.97;2.20;;;;;7.80;101220.00;;;;5026079;28;20618;-70
2023/10/15 00:19:15;;;;;;;8.00;2.70;;;;;7.90;101201.00;;;;5023156;28;20907;-70
2023/10/15 00:22:03;;;;;;;3.20;2.50;;;;;7.90;101209.00;;;;5020412;28;20226;-70
2023/10/15 00:24:50;;;;;;;7.30;4.57;;;;;8.00;101214.00;;;;5018573;28;20230;-71
2023/10/15 00:27:37;;;;;;;9.07;3.67;;;;;8.00;101195.00;;;;5018811;28;20266;-72
2023/10/15 00:30:31;;;;;;;6.20;3.40;;;;;8.00;101195.00;;;;5025563;28;20237;-71
2023/10/15 00:33:19;;;;;;;8.37;2.80;;;;;8.00;101201.00;;;;5025484;28;20283;-71
2023/10/15 00:36:05;;;;;;;9.70;3.00;;;;;7.90;101204.00;;;;5022298;28;20264;-70
2023/10/15 00:38:51;;;;;;;3.40;2.67;;;;;7.90;101200.00;;;;5025700;28;20235;-70
2023/10/15 00:41:40;;;;;;;7.73;3.33;;;;;7.90;101196.00;;;;5025788;28;20314;-71
2023/10/15 00:44:27;;;;;;;9.13;3.67;;;;;8.00;101197.00;;;;5025440;28;20298;-68
2023/10/15 00:47:16;;;;;;;5.30;3.13;;;;;8.10;101182.00;;;;5025480;28;20244;-70
2023/10/15 00:50:07;;;;;;;8.47;3.20;;;;;8.10;101177.00;;;;5019896;28;20229;-70
2023/10/15 00:52:57;;;;;;;10.47;4.43;;;;;8.10;101178.00;;;;5022201;28;20234;-70
2023/10/15 00:55:44;;;;;;;7.83;5.27;;;;;8.20;101182.00;;;;5024522;28;20876;-70
2023/10/15 00:58:39;;;;;;;13.03;5.80;;;;;8.20;101188.00;;;;5025736;28;20617;-71
2023/10/15 01:01:33;;;;;;;11.50;5.90;;;;;8.30;101211.00;;;;5022024;28;20364;-70
2023/10/15 01:04:24;;;;;;;13.10;5.37;;;;;8.30;101230.00;;;;5021297;28;20816;-73
2023/10/15 01:07:41;;;;;;;10.00;5.60;;;;;8.40;101219.00;;;;5023217;28;20306;-72
2023/10/15 01:10:31;;;;;;;12.53;5.20;;;;;8.40;101220.00;;;;5027366;28;20808;-70
2023/10/15 01:13:21;;;;;;;12.63;5.50;;;;;8.50;101212.00;;;;5024156;28;20231;-70
2023/10/15 01:16:08;;;;;;;11.37;5.97;;;;;8.50;101220.00;;;;5017965;28;20783;-69
2023/10/15 01:18:57;;;;;;;9.73;5.00;;;;;8.60;101211.00;;;;5016795;28;20236;-70
2023/10/15 01:21:51;;;;;;;7.20;5.13;;;;;8.60;101220.00;;;;5024407;28;20233;-71
2023/10/15 01:24:41;;;;;;;11.90;4.93;;;;;8.60;101217.00;;;;5025197;28;20276;-71
2023/10/15 01:27:30;;;;;;;9.77;5.23;;;;;8.60;101215.00;;;;5022062;28;20878;-68
2023/10/15 01:30:18;;;;;;;7.43;4.13;;;;;8.60;101220.00;;;;5025083;28;20305;-70
2023/10/15 01:33:10;;;;;;;6.87;4.67;;;;;8.60;101214.00;;;;5023412;28;20353;-70
2023/10/15 01:36:01;;;;;;;7.83;4.53;;;;;8.60;101214.00;;;;5011856;28;20257;-70
2023/10/15 01:38:51;;;;;;;9.67;3.83;;;;;8.60;101204.00;;;;5022983;28;20337;-71
2023/10/15 01:41:39;;;;;;;8.10;3.37;;;;;8.60;101203.00;;;;5022491;28;20610;-69
2023/10/15 01:44:27;;;;;;;7.97;3.70;;;;;8.60;101215.00;;;;5024897;28;20241;-71
2023/10/15 01:47:14;;;;;;;4.17;3.30;;;;;8.70;101209.00;;;;5013498;28;20424;-71
2023/10/15 01:50:03;;;;;;;7.77;3.50;;;;;8.70;101219.00;;;;5014918;28;20300;-70
2023/10/15 01:52:50;;;;;;;9.07;3.43;;;;;8.70;101201.00;;;;5018450;28;20305;-68
2023/10/15 01:55:37;;;;;;;5.43;2.80;;;;;8.70;101206.00;;;;5019268;28;20245;-70
2023/10/15 01:58:30;;;;;;;4.60;2.90;;;;;8.70;101212.00;;;;5024476;28;20676;-70
2023/10/15 02:01:31;;;;;;;11.90;3.40;;;;;8.70;101207.00;;;;5023872;28;20281;-71
2023/10/15 02:04:21;;;;;;;6.23;2.70;;;;;8.80;101197.00;;;;5016019;28;20366;-69
2023/10/15 02:07:12;;;;;;;6.27;2.93;;;;;8.80;101201.00;;;;5020235;28;20232;-71
2023/10/15 02:10:00;;;;;;;3.50;2.57;;;;;8.80;101196.00;;;;5022287;28;20297;-70
2023/10/15 02:12:51;;;;;;;6.37;3.00;;;;;8.80;101207.00;;;;5022774;28;20262;-71
2023/10/15 02:15:39;;;;;;;4.30;2.67;;;;;8.70;101201.00;;;;5015166;28;20234;-71
2023/10/15 02:18:30;;;;;;;9.73;3.40;;;;;8.80;101188.00;;;;5020611;28;20235;-70
2023/10/15 02:21:17;;;;;;;5.37;3.27;;;;;8.70;101188.00;;;;5021516;28;20233;-71
2023/10/15 02:24:08;;;;;;;7.37;3.27;;;;;8.70;101178.00;;;;5024940;28;20358;-70
2023/10/15 02:26:55;;;;;;;8.43;3.83;;;;;8.80;101182.00;;;;5023586;28;20630;-68
2023/10/15 02:29:41;;;;;;;7.43;4.03;;;;;8.70;101169.00;;;;5021783;28;20893;-68
2023/10/15 02:32:31;;;;;;;5.90;3.93;;;;;8.70;101164.00;;;;5023087;28;20231;-71
2023/10/15 02:35:24;;;;;;;5.27;4.00;;;;;8.80;101174.00;;;;5012478;28;20248;-70
2023/10/15 02:38:10;;;;;;;6.70;3.30;;;;;8.80;101177.00;;;;5020984;28;20245;-70
2023/10/15 02:41:03;;;;;;;6.50;3.40;;;;;8.70;101181.00;;;;5018715;28;20227;-71
2023/10/15 02:43:53;;;;;;;4.40;3.00;;;;;8.70;101176.00;;;;5021083;28;20355;-70
2023/10/15 02:46:47;;;;;;;4.60;2.27;;;;;8.80;101172.00;;;;5024881;28;20234;-69
2023/10/15 02:49:49;;;;;;;2.67;1.53;;;;;8.70;101180.00;;;;5027424;28;20309;-70
2023/10/15 02:52:43;;;;;;;2.30;1.07;;;;;8.60;101158.00;;;;5023758;28;20367;-72
2023/10/15 02:55:36;;;;;;;1.27;1.10;;;;;8.60;101146.00;;;;5024279;28;20233;-70
2023/10/15 02:58:27;;;;;;;3.80;1.10;;;;;8.50;101143.00;;;;5027338;28;20604;-71
2023/10/15 03:01:19;;;;;;;1.10;1.00;;;;;8.60;101132.00;;;;5025342;28;20388;-71
2023/10/15 03:04:09;;;;;;;1.80;0.90;;;;;8.60;101142.00;;;;5028470;28;20303;-70
2023/10/15 03:06:58;;;;;;;2.17;0.90;;;;;8.50;101123.00;;;;5019681;28;20295;-70
2023/10/15 03:09:48;;;;;;;2.33;1.00;;;;;8.60;101146.00;;;;5024720;28;20239;-71
2023/10/15 03:12:35;;;;;;;7.10;0.87;;;;;8.60;101150.00;;;;5024024;28;20751;-70
2023/10/15 03:15:23;;;;;;;5.13;0.90;;;;;8.50;101148.00;;;;5027610;28;20227;-70
2023/10/15 03:18:14;;;;;;;0.73;0.73;;;;;8.60;101157.00;;;;5025898;28;20309;-71
2023/10/15 03:21:09;;;;;;;1.67;1.03;;;;;8.60;101165.00;;;;5027631;28;20353;-71
2023/10/15 03:23:56;;;;;;;1.37;1.07;;;;;8.70;101173.00;;;;5026648;28;20242;-71
2023/10/15 03:26:47;;;;;;;4.77;1.70;;;;;8.60;101171.00;;;;5016874;28;20765;-69
2023/10/15 03:29:34;;;;;;;2.60;1.47;;;;;8.60;101178.00;;;;5021431;28;20242;-72
2023/10/15 03:32:23;;;;;;;6.27;1.87;;;;;8.70;101173.00;;;;5020602;28;20237;-69
2023/10/15 03:35:17;;;;;;;6.70;1.97;;;;;8.60;101177.00;;;;5026982;28;20664;-70
2023/10/15 03:38:06;;;;;;;4.17;1.80;;;;;8.70;101185.00;;;;5026513;28;20235;-70
2023/10/15 03:41:06;;;;;;;5.00;2.20;;;;;8.70;101183.00;;;;5024988;28;20233;-70
2023/10/15 03:43:56;;;;;;;4.80;2.50;;;;;8.60;101186.00;;;;5024923;28;20312;-70
2023/10/15 03:46:44;;;;;;;4.80;2.63;;;;;8.60;101194.00;;;;5026956;28;20233;-70
2023/10/15 03:49:31;;;;;;;7.37;2.30;;;;;8.70;101194.00;;;;5026128;28;20230;-71
2023/10/15 03:52:20;;;;;;;4.77;2.83;;;;;8.70;101190.00;;;;5025459;28;20610;-71
2023/10/15 03:55:07;;;;;;;3.50;2.73;;;;;8.70;101183.00;;;;5019613;28;20234;-70
2023/10/15 03:57:53;;;;;;;6.10;2.80;;;;;8.70;101198.00;;;;5024545;28;20316;-70
2023/10/15 04:00:46;;;;;;;4.50;2.73;;;;;8.70;101201.00;;;;5026983;28;20243;-71
2023/10/15 04:03:35;;;;;;;11.10;3.30;;;;;8.60;101196.00;;;;5021465;28;20316;-70
2023/10/15 04:06:22;;;;;;;4.70;2.80;;;;;8.60;101191.00;;;;5027034;28;20245;-70
2023/10/15 04:09:12;;;;;;;3.37;2.50;;;;;8.70;101191.00;;;;5014796;28;20243;-70
2023/10/15 04:11:58;;;;;;;3.90;2.60;;;;;8.60;101185.00;;;;5026399;28;20897;-70
2023/10/15 04:14:45;;;;;;;8.30;3.17;;;;;8.70;101164.00;;;;5025990;28;20244;-71
2023/10/15 04:17:33;;;;;;;4.73;2.80;;;;;8.70;101188.00;;;;5025532;28;20288;-70
2023/10/15 04:20:26;;;;;;;4.70;3.00;;;;;8.60;101184.00;;;;5018813;28;20277;-71
2023/10/15 04:23:13;;;;;;;4.63;2.97;;;;;8.60;101177.00;;;;5024433;28;20708;-70
2023/10/15 04:26:07;;;;;;;6.23;3.03;;;;;8.60;101175.00;;;;5024066;28;20271;-70
2023/10/15 04:28:53;;;;;;;4.50;2.77;;;;;8.70;101181.00;;;;5024147;28;20321;-70
2023/10/15 04:31:40;;;;;;;4.50;2.83;;;;;8.70;101178.00;;;;5022218;28;20369;-69
2023/10/15 04:34:30;;;;;;;5.13;3.13;;;;;8.60;101174.00;;;;5018774;28;20754;-70
2023/10/15 04:37:17;;;;;;;9.30;3.37;;;;;8.60;101174.00;;;;5020326;28;20230;-71
2023/10/15 04:40:05;;;;;;;4.97;3.00;;;;;8.70;101167.00;;;;5026513;28;20605;-70
2023/10/15 04:43:04;;;;;;;5.10;3.50;;;;;8.60;101181.00;;;;5024794;28;20724;-70
2023/10/15 04:45:51;;;;;;;7.73;3.00;;;;;8.60;101186.00;;;;5022624;28;20268;-70
2023/10/15 04:48:38;;;;;;;5.57;3.23;;;;;8.60;101188.00;;;;5024458;28;20313;-70
2023/10/15 04:51:42;;;;;;;6.97;3.40;;;;;8.60;101184.00;;;;5017026;28;20712;-69
2023/10/15 04:54:29;;;;;;;6.90;3.27;;;;;8.50;101182.00;;;;5024446;28;20357;-70
2023/10/15 04:57:15;;;;;;;7.30;3.33;;;;;8.50;101175.00;;;;5018615;28;20254;-70
2023/10/15 05:00:06;;;;;;;5.03;3.30;;;;;8.60;101185.00;;;;5025999;28;20252;-71
2023/10/15 05:02:53;;;;;;;5.93;3.50;;;;;8.50;101171.00;;;;5023119;28;20234;-70
2023/10/15 05:05:42;;;;;;;5.87;3.47;;;;;8.50;101168.00;;;;5024993;28;20710;-70
2023/10/15 05:08:29;;;;;;;5.40;3.67;;;;;8.50;101167.00;;;;5024058;28;20254;-70
2023/10/15 05:11:21;;;;;;;7.47;3.03;;;;;8.50;101177.00;;;;5019316;28;20312;-69
2023/10/15 05:14:08;;;;;;;6.73;3.53;;;;;8.60;101170.00;;;;5024797;28;20233;-69
2023/10/15 05:16:55;;;;;;;9.93;3.60;;;;;8.50;101168.00;;;;5024254;28;20292;-68
2023/10/15 05:19:42;;;;;;;7.20;3.50;;;;;8.50;101172.00;;;;5024836;28;20229;-69
2023/10/15 05:22:29;;;;;;;5.97;3.33;;;;;8.50;101179.00;;;;5018655;28;20331;-70
2023/10/15 05:25:18;;;;;;;4.80;3.23;;;;;8.50;101169.00;;;;5025347;28;20356;-71
2023/10/15 05:28:05;;;;;;;4.37;3.30;;;;;8.50;101180.00;;;;5024712;28;20240;-70
2023/10/15 05:30:52;;;;;;;8.30;3.50;;;;;8.50;101171.00;;;;5025055;28;20288;-69
2023/10/15 05:33:38;;;;;;;5.23;3.30;;;;;8.50;101167.00;;;;5020021;28;20253;-69
2023/10/15 05:36:25;;;;;;;6.40;3.00;;;;;8.50;101179.00;;;;5025289;28;20276;-69
2023/10/15 05:39:15;;;;;;;4.10;2.97;;;;;8.50;101161.00;;;;5024842;28;20254;-71
2023/10/15 05:42:07;;;;;;;6.23;3.20;;;;;8.50;101168.00;;;;5024514;28;20228;-70
2023/10/15 05:44:53;;;;;;;6.67;3.40;;;;;8.40;101160.00;;;;5021910;28;20241;-70
2023/10/15 05:47:40;;;;;;;4.97;3.03;;;;;8.50;101156.00;;;;5023120;28;20818;-70
2023/10/15 05:50:26;;;;;;;5.13;2.83;;;;;8.60;101153.00;;;;5018134;28;20237;-70
2023/10/15 05:53:13;;;;;;;8.37;2.90;;;;;8.60;101169.00;;;;5024313;28;20234;-73
2023/10/15 05:55:59;;;;;;;6.80;2.93;;;;;8.60;101176.00;;;;5023884;28;20277;-69
2023/10/15 05:58:47;;;;;;;3.93;2.67;;;;;8.50;101167.00;;;;5023755;28;20361;-70
2023/10/15 06:01:33;;;;;;;5.80;2.70;;;;;8.60;101171.00;;;;5014023;28;20235;-70
2023/10/15 06:04:20;;;;;;;3.50;2.60;;;;;8.60;101171.00;;;;5018959;28;20762;-70
2023/10/15 06:07:07;;;;;;;4.97;2.57;;;;;8.60;101170.00;;;;5016091;28;20304;-69
2023/10/15 06:09:53;;;;;;;5.97;2.30;;;;;8.50;101175.00;;;;5023701;28;20357;-70
2023/10/15 06:12:39;;;;;;;4.50;2.60;;;;;8.50;101184.00;;;;5019765;28;21043;-71
2023/10/15 06:15:28;;;;;;;2.73;2.50;;;;;8.60;101170.00;;;;5023429;28;20238;-70
2023/10/15 06:18:14;;;;;;;6.70;2.70;;;;;8.50;101182.00;;;;5023837;28;20226;-69
2023/10/15 06:21:01;;;;;;;3.50;2.10;;;;;8.50;101179.00;;;;5021277;28;20305;-70
2023/10/15 06:23:47;;;;;;;5.67;2.70;;;;;8.60;101195.00;;;;5020470;28;20360;-70
2023/10/15 06:26:33;;;;;;;5.13;2.40;;;;;8.60;101196.00;;;;5028036;28;20234;-68
2023/10/15 06:29:20;;;;;;;5.07;2.47;;;;;8.50;101210.00;;;;5027082;28;20781;-69
2023/10/15 06:32:08;;;;;;;5.50;2.40;;;;;8.60;101212.00;;;;5027859;28;20232;-69
2023/10/15 06:34:55;;;;;;;3.77;2.33;;;;;8.70;101214.00;;;;5027847;28;20289;-68
2023/10/15 06:37:41;;;;;;;3.90;2.17;;;;;8.60;101209.00;;;;5025792;28;20287;-70
2023/10/15 06:40:28;;;;;;;4.77;2.30;;;;;8.60;101227.00;;;;5025032;28;20222;-70
2023/10/15 06:43:15;;;;;;;2.60;2.30;;;;;8.70;101228.00;;;;5022573;28;20248;-69
2023/10/15 06:46:06;;;;;;;6.37;2.40;;;;;8.70;101237.00;;;;5024253;28;20285;-68
2023/10/15 06:48:54;;;;;;;3.93;1.97;;;;;8.70;101247.00;;;;5024736;28;20269;-71
2023/10/15 06:51:42;;;;;;;3.50;2.30;;;;;8.80;101248.00;;;;5022350;28;20234;-68
2023/10/15 06:54:28;;;;;;;2.57;2.17;;;;;8.70;101255.00;;;;5019815;28;20765;-67
2023/10/15 06:57:16;;;;;;;4.90;2.10;;;;;8.70;101255.00;;;;5015312;28;20226;-71
2023/10/15 07:00:02;;;;;;;3.13;2.30;;;;;8.70;101256.00;;;;5023831;28;20225;-71
2023/10/15 07:02:49;;;;;;;5.07;2.30;;;;;8.70;101254.00;;;;5026408;28;20276;-68
2023/10/15 07:05:38;;;;;;;6.53;2.30;;;;;8.80;101261.00;;;;5025874;28;20715;-69
2023/10/15 07:08:25;;;;;;;5.20;2.20;;;;;8.80;101254.00;;;;5027424;28;20225;-69
2023/10/15 07:11:11;;;;;;;3.93;2.27;;;;;8.80;101269.00;;;;5025376;28;20234;-69
2023/10/15 07:13:57;;;;;;;2.57;2.00;;;;;8.80;101257.00;;;;5023980;28;20346;-69
2023/10/15 07:16:43;;;;;;;2.10;1.90;;;;;8.80;101260.00;;;;5027530;28;20228;-69
2023/10/15 07:19:30;;;;;;;2.20;1.70;;;;;8.90;101267.00;;;;5027265;28;20230;-70
2023/10/15 07:22:17;;;;;;;2.27;1.80;;;;;9.00;101272.00;;;;5024219;28;20221;-69
2023/10/15 07:25:08;;;;;;;5.10;2.00;;;;;9.10;101275.00;;;;5015183;28;20293;-69
2023/10/15 07:27:56;;;;;;;5.20;1.60;;;;;9.10;101276.00;;;;5026549;28;20313;-69
2023/10/15 07:30:43;;;;;;;2.70;1.60;;;;;9.00;101281.00;;;;5013809;28;20246;-69
2023/10/15 07:33:29;;;;;;;2.27;1.50;;;;;9.10;101291.00;;;;5014556;28;20227;-70
2023/10/15 07:36:19;;;;;;;2.27;1.63;;;;;9.10;101285.00;;;;5021490;28;20617;-69
2023/10/15 07:39:07;;;;;;;3.03;1.63;;;;;9.10;101280.00;;;;5015461;28;20354;-69
2023/10/15 07:41:53;;;;;;;1.60;1.47;;;;;9.10;101292.00;;;;5022300;28;20698;-68
2023/10/15 07:44:40;;;;;;;1.67;1.33;;;;;9.10;101297.00;;;;5022447;28;20262;-69
2023/10/15 07:47:26;;;;;;;1.53;1.43;;;;;9.10;101301.00;;;;5024239;28;20238;-68
2023/10/15 07:50:16;;;;;;;2.77;1.67;;;;;9.00;101302.00;;;;5022283;28;20238;-69
2023/10/15 07:53:04;;;;;;;2.37;1.43;;;;;9.10;101309.00;;;;5018559;28;20627;-69
2023/10/15 07:55:53;;;;;;;2.30;1.57;;;;;9.10;101312.00;;;;5023970;28;20228;-69
2023/10/15 07:58:39;;;;;;;2.67;1.30;;;;;9.10;101312.00;;;;5021455;28;20232;-68
2023/10/15 08:01:25;;;;;;;3.20;1.60;;;;;9.20;101321.00;;;;5020613;28;20235;-70
2023/10/15 08:04:13;;;;;;;6.00;1.70;;;;;9.30;101319.00;;;;5018118;28;20239;-68
2023/10/15 08:07:00;;;;;;;2.43;1.60;;;;;9.40;101331.00;;;;5024099;28;20863;-69
2023/10/15 08:09:47;;;;;;;3.87;2.20;;;;;9.40;101331.00;;;;5018044;28;20599;-68
2023/10/15 08:12:34;;;;;;;2.33;1.40;;;;;9.50;101335.00;;;;5019315;28;20245;-68
2023/10/15 08:15:21;;;;;;;1.97;1.60;;;;;9.50;101345.00;;;;5024914;28;20313;-68
2023/10/15 08:18:07;;;;;;;2.23;1.70;;;;;9.50;101361.00;;;;5021842;28;20282;-68
2023/10/15 08:20:56;;;;;;;4.23;2.23;;;;;9.50;101372.00;;;;5017532;28;20643;-70
2023/10/15 08:23:43;;;;;;;2.27;1.73;;;;;9.60;101365.00;;;;5022329;28;20290;-69
2023/10/15 08:26:29;;;;;;;2.60;1.87;;;;;9.50;101378.00;;;;5023973;28;20240;-70
2023/10/15 08:29:19;;;;;;;3.50;1.70;;;;;9.50;101368.00;;;;5017752;28;20231;-70
2023/10/15 08:32:06;;;;;;;1.83;1.50;;;;;9.40;101367.00;;;;5020437;28;20257;-70
2023/10/15 08:34:52;;;;;;;2.80;1.60;;;;;9.40;101369.00;;;;5012459;28;20382;-69
2023/10/15 08:37:39;;;;;;;2.50;1.83;;;;;9.40;101372.00;;;;5017980;28;20234;-71
2023/10/15 08:40:27;;;;;;;4.40;2.10;;;;;9.40;101370.00;;;;5024092;28;20261;-71
2023/10/15 08:43:20;;;;;;;2.27;1.70;;;;;9.50;101378.00;;;;5020433;28;20597;-70
2023/10/15 08:46:09;;;;;;;3.43;1.57;;;;;9.50;101384.00;;;;5019606;28;20231;-69
2023/10/15 08:48:58;;;;;;;3.70;1.60;;;;;9.60;101388.00;;;;5022380;28;20330;-70
2023/10/15 08:51:45;;;;;;;2.23;1.67;;;;;9.70;101389.00;;;;5021992;28;20311;-71
2023/10/15 08:54:32;;;;;;;1.77;1.63;;;;;9.70;101396.00;;;;5023401;28;20301;-70
2023/10/15 08:57:18;;;;;;;3.43;1.63;;;;;9.80;101393.00;;;;5021932;28;20274;-70
2023/10/15 09:00:25;;;;;;;4.50;1.90;;;;;9.80;101394.00;;;;5015636;28;20609;-69
2023/10/15 09:03:15;;;;;;;2.47;1.70;;;;;9.80;101398.00;;;;5021828;28;20237;-70
2023/10/15 09:06:05;;;;;;;2.90;1.57;;;;;9.90;101395.00;;;;5020925;28;20964;-71
2023/10/15 09:08:52;;;;;;;2.03;1.60;;;;;9.90;101413.00;;;;5022425;28;20697;-69
2023/10/15 09:11:42;;;;;;;2.07;1.73;;;;;10.00;101419.00;;;;5019649;28;20244;-71
2023/10/15 09:14:39;;;;;;;2.03;1.70;;;;;9.90;101430.00;;;;5023900;28;20235;-70
2023/10/15 09:17:26;;;;;;;2.97;1.60;;;;;9.90;101423.00;;;;5016208;28;20230;-70
2023/10/15 09:20:17;;;;;;;4.00;1.67;;;;;9.90;101427.00;;;;5019762;28;20356;-69
2023/10/15 09:23:04;;;;;;;3.77;1.60;;;;;9.90;101437.00;;;;5015345;28;20238;-69
2023/10/15 09:25:55;;;;;;;2.10;1.43;;;;;10.10;101447.00;;;;5022479;28;20753;-68
2023/10/15 09:28:42;;;;;;;1.90;1.63;;;;;10.20;101447.00;;;;5018262;28;20286;-66
2023/10/15 09:31:28;;;;;;;2.63;1.70;;;;;10.30;101451.00;;;;5024627;28;20239;-69
2023/10/15 09:34:15;;;;;;;3.50;1.60;;;;;10.10;101458.00;;;;5022925;28;20297;-70
2023/10/15 09:37:05;;;;;;;2.97;1.60;;;;;10.20;101445.00;;;;5020908;28;20602;-70
2023/10/15 09:39:51;;;;;;;1.97;1.77;;;;;10.30;101458.00;;;;5019083;28;20225;-68
2023/10/15 09:42:39;;;;;;;1.20;1.10;;;;;10.30;101470.00;;;;5021698;28;20275;-70
2023/10/15 09:45:25;;;;;;;1.30;1.07;;;;;10.20;101463.00;;;;5021456;28;20304;-71
2023/10/15 09:48:12;;;;;;;3.13;1.40;;;;;10.30;101472.00;;;;5021237;28;20229;-70
2023/10/15 09:50:59;;;;;;;1.13;0.97;;;;;10.40;101473.00;;;;5015203;28;20225;-69
2023/10/15 09:53:49;;;;;;;2.03;1.10;;;;;10.60;101477.00;;;;5017157;28;20225;-69
2023/10/15 09:56:36;;;;;;;1.10;1.00;;;;;10.50;101479.00;;;;5011967;28;20240;-69
2023/10/15 09:59:24;;;;;;;2.40;1.30;;;;;10.60;101484.00;;;;5017982;28;20593;-69
2023/10/15 10:02:16;;;;;;;0.80;0.80;;;;;10.60;101487.00;;;;5024884;28;20272;-69
2023/10/15 10:05:17;;;;;;;2.40;1.20;;;;;10.40;101474.00;;;;5019630;28;20580;-70
2023/10/15 10:08:12;;;;;;;1.63;1.10;;;;;10.50;101467.00;;;;5020622;28;20224;-67
2023/10/15 10:11:16;;;;;;;1.67;1.07;;;;;10.60;101468.00;;;;5023173;28;20225;-72
2023/10/15 10:14:33;;;;;;;1.10;1.00;;;;;10.90;101486.00;;;;5017318;28;20222;-70
2023/10/15 10:17:21;;;;;;;3.53;1.00;;;;;10.80;101469.00;;;;5022054;28;20583;-70
2023/10/15 10:20:11;;;;;;;2.63;1.00;;;;;11.00;101477.00;;;;5023880;28;20221;-68
2023/10/15 10:23:00;;;;;;;2.07;1.10;;;;;10.90;101487.00;;;;5023683;28;20754;-69
2023/10/15 10:25:50;;;;;;;2.40;1.00;;;;;10.90;101475.00;;;;5024210;28;20311;-71
2023/10/15 10:28:38;;;;;;;1.87;1.10;;;;;11.00;101481.00;;;;5019009;28;20300;-68
2023/10/15 10:31:24;;;;;;;1.23;1.00;;;;;11.20;101481.00;;;;5020317;28;20225;-70
2023/10/15 10:34:14;;;;;;;1.10;1.00;;;;;11.50;101480.00;;;;5024085;28;20311;-68
2023/10/15 10:37:00;;;;;;;2.10;1.03;;;;;11.50;101485.00;;;;5018929;28;20315;-69
2023/10/15 10:39:48;;;;;;;1.30;0.90;;;;;11.40;101482.00;;;;5017739;28;20230;-69
2023/10/15 10:42:34;;;;;;;1.77;0.80;;;;;11.40;101485.00;;;;5021249;28;20409;-70
2023/10/15 10:45:53;;;;;;;1.90;0.90;;;;;11.50;101478.00;;;;5023925;28;20754;-69
2023/10/15 10:48:40;;;;;;;1.73;0.90;;;;;11.40;101481.00;;;;5015582;28;20264;-68
2023/10/15 10:51:30;;;;;;;0.90;0.87;;;;;11.50;101482.00;;;;5022548;28;20233;-71
2023/10/15 10:54:27;;;;;;;2.70;0.90;;;;;11.80;101474.00;;;;5022370;28;20372;-70
2023/10/15 10:57:14;;;;;;;2.83;1.07;;;;;12.00;101489.00;;;;5016780;28;20226;-71
2023/10/15 11:00:01;;;;;;;0.90;0.83;;;;;12.20;101481.00;;;;5024227;28;20777;-68
2023/10/15 11:02:49;;;;;;;2.90;1.07;;;;;12.40;101488.00;;;;5020221;28;20711;-70
2023/10/15 11:05:36;;;;;;;2.30;0.87;;;;;12.70;101487.00;;;;5023588;28;20233;-69
2023/10/15 11:08:23;;;;;;;0.90;0.80;;;;;12.70;101489.00;;;;5012735;28;20610;-70
2023/10/15 11:11:10;;;;;;;3.10;0.80;;;;;12.70;101489.00;;;;5026136;28;20237;-69
2023/10/15 11:13:57;;;;;;;0.80;0.80;;;;;12.30;101481.00;;;;5021771;28;20241;-68
2023/10/15 11:16:44;;;;;;;1.93;0.80;;;;;12.20;101476.00;;;;5018106;28;20230;-71
2023/10/15 11:19:32;;;;;;;1.37;0.70;;;;;12.30;101482.00;;;;5025666;28;20244;-70
2023/10/15 11:22:18;;;;;;;0.87;0.73;;;;;12.50;101478.00;;;;5027486;28;20241;-69
2023/10/15 11:25:14;;;;;;;0.73;0.73;;;;;12.50;101485.00;;;;5027990;28;20244;-69
2023/10/15 11:28:04;;;;;;;2.67;0.90;;;;;12.50;101488.00;;;;5025862;28;20233;-69
2023/10/15 11:30:50;;;;;;;1.07;0.77;;;;;12.50;101472.00;;;;5012879;28;20233;-69
2023/10/15 11:33:39;;;;;;;1.27;0.80;;;;;12.50;101488.00;;;;5027059;28;20232;-70
2023/10/15 11:36:28;;;;;;;1.40;0.73;;;;;12.50;101491.00;;;;5020995;28;20237;-71
2023/10/15 11:39:18;;;;;;;0.60;0.60;;;;;12.50;101487.00;;;;5026888;28;20228;-72
2023/10/15 11:42:04;;;;;;;1.23;0.80;;;;;12.70;101487.00;;;;5016373;28;20655;-71
2023/10/15 11:44:55;;;;;;;2.43;0.77;;;;;12.60;101489.00;;;;5027206;28;20283;-69
2023/10/15 11:47:44;;;;;;;0.60;0.60;;;;;12.50;101494.00;;;;5020128;28;20225;-71
2023/10/15 11:50:30;;;;;;;2.53;0.70;;;;;12.70;101494.00;;;;5026372;28;20229;-69
2023/10/15 11:53:21;;;;;;;1.87;0.60;;;;;12.90;101506.00;;;;5026734;28;20380;-70
2023/10/15 11:56:16;;;;;;;0.83;0.73;;;;;12.90;101490.00;;;;5022797;28;20604;-70
2023/10/15 11:59:03;;;;;;;3.20;0.90;;;;;12.90;101489.00;;;;5025519;28;20233;-71
2023/10/15 12:01:52;;;;;;;2.90;1.00;;;;;12.80;101488.00;;;;5025456;28;20229;-72
2023/10/15 12:04:39;;;;;;;1.77;0.60;;;;;12.90;101505.00;;;;5026802;28;20653;-70
2023/10/15 12:07:25;;;;;;;0.97;0.60;;;;;12.80;101498.00;;;;5017895;28;20345;-71
2023/10/15 12:10:15;;;;;;;2.30;0.60;;;;;13.00;101506.00;;;;5026308;28;20725;-70
2023/10/15 12:13:02;;;;;;;1.57;0.77;;;;;13.30;101502.00;;;;5019216;28;20229;-70
2023/10/15 12:15:49;;;;;;;1.50;0.77;;;;;13.00;101498.00;;;;5026735;28;20237;-70
2023/10/15 12:18:35;;;;;;;1.00;0.90;;;;;12.80;101505.00;;;;5016836;28;20242;-69
2023/10/15 12:21:22;;;;;;;1.47;0.70;;;;;12.60;101514.00;;;;5023458;28;20706;-70
2023/10/15 12:24:10;;;;;;;0.67;0.67;;;;;12.30;101502.00;;;;5022289;28;20229;-70
2023/10/15 12:26:58;;;;;;;2.80;1.63;;;;;12.20;101516.00;;;;5019789;28;20221;-71
2023/10/15 12:29:45;;;;;;;1.97;1.30;;;;;12.10;101519.00;;;;5018777;28;20602;-69
2023/10/15 12:32:31;;;;;;;0.70;0.70;;;;;12.10;101512.00;;;;5019427;28;20588;-70
2023/10/15 12:35:31;;;;;;;1.17;0.80;;;;;12.30;101511.00;;;;5020011;28;20645;-73
2023/10/15 12:38:26;;;;;;;3.70;0.80;;;;;12.70;101512.00;;;;5014140;28;20229;-69
2023/10/15 12:41:12;;;;;;;0.90;0.70;;;;;13.20;101519.00;;;;5025329;28;20738;-69
2023/10/15 12:44:00;;;;;;;0.60;0.60;;;;;13.40;101509.00;;;;5022004;28;20233;-70
2023/10/15 12:46:46;;;;;;;2.57;1.20;;;;;13.60;101512.00;;;;5026348;28;20259;-72
2023/10/15 12:49:33;;;;;;;1.60;0.70;;;;;13.60;101514.00;;;;5021140;28;20234;-73
2023/10/15 12:52:20;;;;;;;0.83;0.67;;;;;13.50;101532.00;;;;5022579;28;20234;-71
2023/10/15 12:55:07;;;;;;;2.00;0.80;;;;;13.40;101525.00;;;;5022963;28;20233;-70
2023/10/15 12:57:53;;;;;;;1.73;0.77;;;;;13.00;101515.00;;;;5025761;28;20614;-70
2023/10/15 13:00:43;;;;;;;2.47;0.80;;;;;13.10;101525.00;;;;5023860;28;20850;-71
2023/10/15 13:03:30;;;;;;;1.57;0.80;;;;;13.10;101526.00;;;;5024236;28;20352;-71
2023/10/15 13:06:16;;;;;;;0.90;0.53;;;;;13.30;101532.00;;;;5019832;28;20288;-71
2023/10/15 13:09:08;;;;;;;1.33;0.80;;;;;13.20;101532.00;;;;5016812;28;20384;-71
2023/10/15 13:11:55;;;;;;;2.27;0.90;;;;;13.00;101532.00;;;;5022607;28;20348;-73
2023/10/15 13:14:43;;;;;;;2.27;0.80;;;;;13.20;101534.00;;;;5016815;28;20242;-70
2023/10/15 13:17:31;;;;;;;5.20;0.90;;;;;13.40;101531.00;;;;5018584;28;20588;-70
2023/10/15 13:20:18;;;;;;;3.80;0.97;;;;;13.40;101541.00;;;;5022274;28;20229;-72
2023/10/15 13:23:05;;;;;;;2.33;1.00;;;;;13.60;101538.00;;;;5018018;28;20730;-71
2023/10/15 13:25:54;;;;;;;1.03;0.80;;;;;13.50;101546.00;;;;5016943;28;20907;-70
2023/10/15 13:28:40;;;;;;;1.97;1.00;;;;;13.40;101551.00;;;;5021110;28;20230;-72
2023/10/15 13:31:27;;;;;;;1.60;0.83;;;;;13.10;101556.00;;;;5022461;28;20730;-72
2023/10/15 13:34:14;;;;;;;2.03;0.80;;;;;13.00;101548.00;;;;5023844;28;20236;-71
2023/10/15 13:37:03;;;;;;;3.70;0.90;;;;;12.90;101558.00;;;;5018806;28;20304;-70
2023/10/15 13:39:52;;;;;;;3.17;0.67;;;;;12.80;101555.00;;;;5019204;28;20715;-72
2023/10/15 13:42:39;;;;;;;2.00;0.90;;;;;12.70;101569.00;;;;5021114;28;20229;-70
2023/10/15 13:45:26;;;;;;;1.63;0.70;;;;;12.60;101569.00;;;;5025141;28;20349;-71
2023/10/15 13:48:12;;;;;;;6.73;1.00;;;;;12.50;101569.00;;;;5014672;28;20241;-72
2023/10/15 13:51:00;;;;;;;2.17;0.87;;;;;12.60;101561.00;;;;5020320;28;20268;-69
2023/10/15 13:53:47;;;;;;;3.03;1.07;;;;;12.70;101558.00;;;;5021084;28;20236;-71
2023/10/15 13:56:33;;;;;;;0.87;0.60;;;;;12.70;101567.00;;;;5018159;28;20247;-69
2023/10/15 13:59:20;;;;;;;2.40;0.93;;;;;12.80;101576.00;;;;5016296;28;20291;-72
2023/10/15 14:02:07;;;;;;;1.40;0.60;;;;;12.70;101582.00;;;;5021411;28;20225;-70